aviador You're here:

DAON Decoded Metar

TLEMCEN in ALGERIA
Report Time2018-06-19 07:30:00
UTC Time2018-06-19 08:07:24
Flight Rules vfr VFR
Wind320° at 03 kt
W.Decomp.*RWY 25: 1.0 kt HW 2.8 kt RCW
W.Rank320° ranks 9
Current wind is below 320° avg. (5.4)
Visibility9999 m
Phenomena:N/A
Clouds:N/A
Expected CloudBase > 2,400 ft AGL from Temp-Dew spread
CeilingNone
Temp22°C (ISA +9)
Dew Point16°C (69% RH)
QNH1020 hPa
Density Alt1,821 ft
Elevation810 ft
Report Wrong Elevation
Raw Report
DAON 190730Z 32003KT CAVOK 22/16 Q1020=

Extra information for DAON:More info

Metar Taf Metar & Taf Last 4 Metars F.Rules Stats Wind Profile Meteogram Temp Stats Airport Information Weather charts Add Link Nearby VenuesMetar ALERT Operation Metar Decoded Social comments